Terminal Aerodrome Forecast
Issued by NWS

Home | Current Version | Previous Version | Graphics & Text | Print | Product List | Glossary On
Versions: 1 2 3 4 5 6 7 8 9 10 11 12 13 14 15
283
FTUS43 KICT 140520
TAFRSL
TAF
KRSL 140520Z 1406/1506 01005KT P6SM OVC025
     FM141300 01005KT P6SM SCT025
     FM142300 03005KT 5SM -FZRA OVC025
     FM150300 06005KT 2SM -FZRA OVC007=

USA.gov is the U.S. government's official web portal to all federal, state and local government web resources and services.